createdAt,value
2022-09-07T00:01:05.868Z,8.43
2022-09-07T00:03:33.012Z,11.90
2022-09-07T00:06:00.234Z,9.73
2022-09-07T00:08:27.800Z,11.03
2022-09-07T00:10:56.101Z,9.80
2022-09-07T00:13:24.145Z,8.83
2022-09-07T00:15:51.679Z,9.30
2022-09-07T00:18:18.975Z,11.97
2022-09-07T00:20:46.147Z,12.23
2022-09-07T00:23:13.532Z,8.87
2022-09-07T00:25:41.005Z,11.50
2022-09-07T00:28:08.785Z,7.83
2022-09-07T00:30:35.934Z,11.87
2022-09-07T00:33:03.079Z,10.17
2022-09-07T00:35:30.208Z,13.17
2022-09-07T00:37:57.361Z,11.97
2022-09-07T00:40:24.531Z,9.63
2022-09-07T00:42:51.685Z,14.47
2022-09-07T00:45:20.588Z,10.53
2022-09-07T00:47:53.906Z,9.43
2022-09-07T00:50:24.017Z,8.67
2022-09-07T00:52:53.911Z,8.90
2022-09-07T00:55:21.824Z,11.07
2022-09-07T00:57:51.261Z,10.73
2022-09-07T01:00:18.981Z,14.17
2022-09-07T01:02:48.010Z,13.53
2022-09-07T01:05:23.374Z,11.80
2022-09-07T01:07:50.797Z,12.77
2022-09-07T01:10:18.724Z,12.50
2022-09-07T01:12:45.911Z,10.10
2022-09-07T01:15:13.110Z,10.30
2022-09-07T01:17:43.036Z,10.60
2022-09-07T01:20:10.425Z,10.70
2022-09-07T01:22:56.131Z,10.70
2022-09-07T01:25:32.368Z,11.53
2022-09-07T01:28:21.361Z,8.60
2022-09-07T01:30:51.649Z,9.27
2022-09-07T01:33:32.098Z,10.50
2022-09-07T01:36:05.200Z,11.47
2022-09-07T01:38:36.760Z,10.13
2022-09-07T01:41:39.312Z,11.80
2022-09-07T01:44:09.176Z,19.20
2022-09-07T01:46:40.594Z,10.30
2022-09-07T01:49:19.377Z,11.53
2022-09-07T01:51:48.740Z,12.87
2022-09-07T01:54:19.528Z,10.07
2022-09-07T01:56:48.187Z,12.30
2022-09-07T01:59:20.891Z,12.27
2022-09-07T02:01:52.693Z,13.37
2022-09-07T02:04:25.471Z,11.50
2022-09-07T02:07:01.554Z,11.87
2022-09-07T02:09:34.038Z,11.10
2022-09-07T02:12:03.512Z,11.83
2022-09-07T02:14:32.973Z,15.73
2022-09-07T02:17:09.300Z,10.10
2022-09-07T02:19:38.803Z,10.63
2022-09-07T02:22:08.939Z,11.03
2022-09-07T02:24:38.643Z,10.83
2022-09-07T02:27:12.163Z,9.53
2022-09-07T02:29:39.511Z,11.53
2022-09-07T02:32:06.838Z,11.10
2022-09-07T02:34:34.044Z,12.03
2022-09-07T02:37:02.379Z,11.40
2022-09-07T02:39:29.561Z,10.00
2022-09-07T02:41:56.764Z,10.73
2022-09-07T02:44:28.741Z,11.87
2022-09-07T02:46:58.673Z,12.43
2022-09-07T02:49:25.806Z,11.80
2022-09-07T02:52:10.653Z,10.97
2022-09-07T02:54:43.688Z,11.20
2022-09-07T02:57:16.731Z,9.23
2022-09-07T02:59:46.909Z,12.43
2022-09-07T03:02:14.135Z,12.30
2022-09-07T03:04:41.272Z,9.93
2022-09-07T03:07:14.605Z,12.53
2022-09-07T03:09:47.389Z,10.53
2022-09-07T03:12:14.636Z,12.53
2022-09-07T03:14:42.584Z,11.57
2022-09-07T03:17:09.752Z,8.30
2022-09-07T03:19:37.036Z,11.13
2022-09-07T03:22:04.757Z,10.63
2022-09-07T03:24:31.953Z,12.57
2022-09-07T03:26:59.320Z,10.83
2022-09-07T03:29:26.505Z,12.63
2022-09-07T03:31:53.688Z,11.13
2022-09-07T03:34:20.840Z,11.43
2022-09-07T03:36:47.977Z,11.67
2022-09-07T03:39:15.131Z,11.27
2022-09-07T03:41:42.345Z,13.00
2022-09-07T03:44:09.828Z,11.03
2022-09-07T03:46:37.067Z,13.50
2022-09-07T03:49:04.292Z,11.70
2022-09-07T03:51:31.529Z,14.60
2022-09-07T03:54:00.374Z,18.47
2022-09-07T03:56:27.531Z,11.50
2022-09-07T03:58:55.581Z,14.77
2022-09-07T04:01:24.371Z,14.77
2022-09-07T04:03:51.838Z,15.33
2022-09-07T04:06:19.665Z,11.40
2022-09-07T04:08:46.871Z,14.00
2022-09-07T04:11:16.655Z,11.87
2022-09-07T04:13:44.217Z,12.07
2022-09-07T04:16:18.861Z,14.17
2022-09-07T04:18:46.055Z,11.30
2022-09-07T04:21:13.278Z,12.77
2022-09-07T04:23:41.040Z,13.37
2022-09-07T04:26:13.536Z,12.70
2022-09-07T04:28:40.697Z,11.73
2022-09-07T04:31:07.963Z,10.60
2022-09-07T04:33:35.130Z,14.57
2022-09-07T04:36:02.547Z,16.00
2022-09-07T04:38:30.288Z,15.03
2022-09-07T04:41:06.697Z,15.33
2022-09-07T04:43:33.860Z,14.63
2022-09-07T04:46:04.914Z,12.60
2022-09-07T04:48:32.199Z,10.47
2022-09-07T04:51:09.614Z,16.57
2022-09-07T04:53:37.761Z,12.20
2022-09-07T04:56:05.571Z,12.83
2022-09-07T04:58:32.870Z,17.40
2022-09-07T05:01:03.795Z,11.93
2022-09-07T05:03:32.329Z,13.40
2022-09-07T05:06:02.830Z,12.03
2022-09-07T05:08:30.296Z,15.67
2022-09-07T05:10:57.711Z,16.83
2022-09-07T05:13:25.551Z,16.13
2022-09-07T05:15:52.691Z,12.67
2022-09-07T05:18:20.240Z,13.60
2022-09-07T05:20:47.366Z,15.03
2022-09-07T05:23:14.860Z,17.07
2022-09-07T05:25:45.553Z,18.70
2022-09-07T05:28:16.007Z,11.60
2022-09-07T05:36:21.377Z,12.83
2022-09-07T05:38:48.573Z,12.90
2022-09-07T05:41:21.130Z,13.00
2022-09-07T05:46:36.217Z,11.37
2022-09-07T05:49:03.664Z,10.07
2022-09-07T05:51:30.863Z,9.50
2022-09-07T05:53:58.628Z,12.20
2022-09-07T05:56:25.861Z,10.73
2022-09-07T05:58:53.010Z,14.17
2022-09-07T06:01:20.471Z,9.90
2022-09-07T06:03:47.625Z,11.97
2022-09-07T06:06:16.393Z,13.83
2022-09-07T06:08:47.853Z,12.57
2022-09-07T06:11:16.802Z,10.50
2022-09-07T06:13:44.039Z,9.48
2022-09-07T06:16:12.550Z,12.77
2022-09-07T06:18:40.782Z,8.60
2022-09-07T06:21:15.758Z,11.05
2022-09-07T06:23:43.576Z,11.02
2022-09-07T06:26:11.272Z,15.07
2022-09-07T06:28:39.754Z,8.15
2022-09-07T06:31:08.184Z,11.10
2022-09-07T06:33:35.847Z,11.82
2022-09-07T06:36:04.877Z,10.40
2022-09-07T06:38:33.039Z,11.98
2022-09-07T06:44:13.604Z,9.00
2022-09-07T06:49:27.959Z,10.98
2022-09-07T06:51:55.639Z,11.30
2022-09-07T06:57:10.041Z,8.18
2022-09-07T06:59:37.788Z,12.45
2022-09-07T07:02:05.475Z,10.98
2022-09-07T07:04:37.801Z,9.57
2022-09-07T07:07:10.082Z,10.35
2022-09-07T07:09:37.675Z,9.32
2022-09-07T07:12:04.917Z,10.65
2022-09-07T07:14:35.547Z,10.82
2022-09-07T07:17:03.620Z,13.18
2022-09-07T07:19:30.850Z,13.65
2022-09-07T07:24:45.153Z,8.30
2022-09-07T07:27:12.303Z,10.07
2022-09-07T07:29:39.451Z,10.27
2022-09-07T07:32:06.627Z,9.98
2022-09-07T07:34:33.825Z,11.20
2022-09-07T07:37:00.964Z,12.32
2022-09-07T07:42:15.134Z,10.90
2022-09-07T07:44:42.230Z,13.65
2022-09-07T07:47:09.327Z,10.00
2022-09-07T07:49:36.502Z,9.25
2022-09-07T07:54:53.240Z,7.75
2022-09-07T07:57:20.410Z,10.57
2022-09-07T07:59:47.502Z,9.55
2022-09-07T08:02:15.848Z,7.80
2022-09-07T08:04:43.156Z,7.45
2022-09-07T08:07:11.886Z,7.10
2022-09-07T08:09:48.565Z,11.43
2022-09-07T08:12:20.088Z,9.95
2022-09-07T08:14:48.306Z,12.57
2022-09-07T08:17:16.643Z,10.45
2022-09-07T08:19:44.030Z,7.20
2022-09-07T08:22:12.429Z,8.02
2022-09-07T08:24:39.569Z,6.05
2022-09-07T08:27:07.201Z,7.13
2022-09-07T08:29:35.492Z,7.90
2022-09-07T08:32:03.731Z,9.75
2022-09-07T08:34:30.861Z,11.40
2022-09-07T08:36:58.104Z,7.00
2022-09-07T08:39:25.228Z,7.47
2022-09-07T08:41:52.334Z,10.70
2022-09-07T08:44:19.357Z,5.93
2022-09-07T08:46:50.225Z,6.18
2022-09-07T08:49:20.714Z,11.15
2022-09-07T08:51:51.465Z,10.73
2022-09-07T08:54:18.662Z,11.45
2022-09-07T08:59:43.660Z,11.15
2022-09-07T09:02:34.017Z,9.07
2022-09-07T09:05:18.705Z,9.13
2022-09-07T09:07:53.407Z,10.88
2022-09-07T09:10:23.458Z,6.00
2022-09-07T09:12:59.421Z,8.48
2022-09-07T09:15:30.921Z,8.18
2022-09-07T09:18:14.463Z,11.85
2022-09-07T09:20:51.441Z,9.45
2022-09-07T09:23:19.440Z,8.45
2022-09-07T09:25:51.995Z,8.52
2022-09-07T09:28:19.385Z,7.43
2022-09-07T09:30:48.106Z,9.00
2022-09-07T09:33:18.285Z,7.70
2022-09-07T09:35:46.699Z,9.32
2022-09-07T09:38:31.907Z,9.65
2022-09-07T09:41:03.647Z,9.82
2022-09-07T09:43:36.040Z,11.73
2022-09-07T09:46:18.953Z,8.82
2022-09-07T09:48:52.757Z,11.60
2022-09-07T09:54:16.984Z,10.43
2022-09-07T09:56:45.455Z,8.85
2022-09-07T10:05:29.124Z,12.13
2022-09-07T10:07:56.849Z,10.63
2022-09-07T10:10:24.046Z,12.50
2022-09-07T10:12:53.288Z,11.20
2022-09-07T10:15:40.400Z,10.10
2022-09-07T10:18:15.658Z,11.30
2022-09-07T10:20:42.744Z,8.07
2022-09-07T10:23:20.048Z,8.68
2022-09-07T10:25:47.636Z,6.78
2022-09-07T10:28:18.908Z,7.75
2022-09-07T10:30:46.132Z,8.52
2022-09-07T10:33:36.384Z,10.45
2022-09-07T10:36:12.982Z,8.65
2022-09-07T10:38:46.654Z,10.75
2022-09-07T10:41:14.286Z,9.38
2022-09-07T10:43:44.567Z,7.45
2022-09-07T10:49:27.477Z,6.70
2022-09-07T10:52:09.937Z,7.22
2022-09-07T10:54:39.808Z,7.80
2022-09-07T10:57:09.698Z,11.10
2022-09-07T11:05:50.803Z,8.75
2022-09-07T11:09:14.833Z,8.85
2022-09-07T11:12:00.716Z,7.60
2022-09-07T11:14:14.288Z,5.55
2022-09-07T11:16:52.012Z,9.68
2022-09-07T11:19:35.615Z,12.45
2022-09-07T11:22:03.141Z,9.27
2022-09-07T11:24:47.434Z,8.70
2022-09-07T11:27:17.282Z,7.55
2022-09-07T11:29:48.014Z,8.25
2022-09-07T11:32:21.483Z,8.57
2022-09-07T11:34:52.125Z,8.13
2022-09-07T11:37:22.743Z,7.13
2022-09-07T11:39:59.231Z,8.77
2022-09-07T11:42:47.013Z,9.43
2022-09-07T11:45:23.739Z,9.50
2022-09-07T11:47:55.109Z,7.18
2022-09-07T11:50:23.319Z,6.78
2022-09-07T11:52:53.944Z,7.85
2022-09-07T11:55:25.393Z,5.40
2022-09-07T11:58:07.573Z,8.48
2022-09-07T12:00:50.314Z,8.20
2022-09-07T12:03:36.001Z,7.07
2022-09-07T12:06:13.954Z,6.55
2022-09-07T12:09:00.029Z,8.20
2022-09-07T12:11:27.492Z,7.30
2022-09-07T12:14:13.295Z,8.50
2022-09-07T12:16:59.094Z,6.70
2022-09-07T12:19:27.655Z,8.88
2022-09-07T12:21:54.716Z,7.57
2022-09-07T12:24:40.888Z,13.27
2022-09-07T12:27:12.483Z,8.60
2022-09-07T12:29:45.198Z,6.07
2022-09-07T12:34:59.923Z,8.25
2022-09-07T12:37:26.962Z,8.68
2022-09-07T12:40:17.361Z,8.18
2022-09-07T12:42:44.760Z,4.72
2022-09-07T12:45:47.256Z,5.95
2022-09-07T12:48:17.135Z,5.78
2022-09-07T12:51:03.171Z,6.38
2022-09-07T12:53:48.815Z,7.03
2022-09-07T12:56:20.534Z,7.00
2022-09-07T12:58:59.514Z,5.28
2022-09-07T13:01:26.667Z,7.05
2022-09-07T13:03:53.836Z,7.22
2022-09-07T13:07:01.724Z,5.88
2022-09-07T13:09:26.602Z,9.07
2022-09-07T13:11:53.828Z,7.78
2022-09-07T13:14:23.391Z,6.95
2022-09-07T13:19:46.874Z,9.27
2022-09-07T13:22:31.958Z,8.00
2022-09-07T13:25:00.110Z,6.00
2022-09-07T13:27:44.959Z,6.43
2022-09-07T13:30:24.260Z,6.97
2022-09-07T13:35:39.162Z,7.93
2022-09-07T13:38:06.345Z,7.82
2022-09-07T13:40:39.599Z,6.55
2022-09-07T13:43:13.192Z,7.07
2022-09-07T13:45:49.251Z,8.13
2022-09-07T13:48:25.286Z,8.07
2022-09-07T13:51:08.292Z,6.07
2022-09-07T13:53:38.075Z,8.57
2022-09-07T13:56:05.278Z,6.93
2022-09-07T13:58:40.290Z,5.65
2022-09-07T14:01:19.418Z,8.05
2022-09-07T14:03:57.141Z,9.82
2022-09-07T14:06:25.552Z,6.70
2022-09-07T14:08:54.019Z,7.43
2022-09-07T14:11:47.777Z,9.18
2022-09-07T14:14:22.536Z,5.85
2022-09-07T14:17:02.057Z,6.55
2022-09-07T14:19:41.228Z,4.53
2022-09-07T14:22:17.274Z,7.25
2022-09-07T14:24:49.350Z,4.88
2022-09-07T14:27:22.763Z,6.38
2022-09-07T14:29:50.213Z,6.07
2022-09-07T14:32:22.997Z,6.65
2022-09-07T14:34:50.577Z,6.22
2022-09-07T14:37:18.441Z,7.57
2022-09-07T14:39:46.756Z,9.70
2022-09-07T14:42:16.019Z,7.53
2022-09-07T14:44:43.243Z,4.95
2022-09-07T14:47:24.009Z,8.18
2022-09-07T14:49:52.655Z,9.18
2022-09-07T14:52:22.494Z,5.40
2022-09-07T14:54:52.658Z,8.68
2022-09-07T14:57:19.727Z,5.55
2022-09-07T14:59:48.027Z,6.15
2022-09-07T15:02:15.109Z,4.78
2022-09-07T15:04:42.253Z,6.68
2022-09-07T15:07:28.834Z,8.50
2022-09-07T15:09:56.024Z,6.60
2022-09-07T15:12:38.218Z,8.65
2022-09-07T15:15:32.457Z,5.70
2022-09-07T15:18:07.547Z,6.93
2022-09-07T15:20:45.540Z,4.95
2022-09-07T15:23:14.019Z,5.40
2022-09-07T15:25:44.342Z,6.80
2022-09-07T15:34:20.107Z,5.50
2022-09-07T15:36:48.838Z,6.05
2022-09-07T15:39:27.496Z,8.00
2022-09-07T15:41:54.841Z,7.60
2022-09-07T15:44:26.084Z,4.43
2022-09-07T15:49:47.653Z,7.25
2022-09-07T15:52:17.321Z,5.25
2022-09-07T15:54:44.466Z,8.63
2022-09-07T15:59:58.822Z,7.80
2022-09-07T16:05:13.387Z,6.40
2022-09-07T16:10:31.068Z,7.50
2022-09-07T16:13:03.083Z,7.25
2022-09-07T16:15:45.172Z,9.45
2022-09-07T16:18:16.588Z,8.50
2022-09-07T16:20:44.336Z,6.53
2022-09-07T16:23:14.007Z,7.88
2022-09-07T16:25:43.285Z,5.68
2022-09-07T16:28:11.037Z,8.88
2022-09-07T16:30:41.587Z,7.35
2022-09-07T16:33:08.876Z,6.05
2022-09-07T16:35:36.075Z,11.85
2022-09-07T16:40:51.123Z,8.45
2022-09-07T16:43:18.236Z,4.60
2022-09-07T16:48:33.791Z,7.93
2022-09-07T16:51:02.643Z,9.82
2022-09-07T16:53:31.073Z,5.22
2022-09-07T16:56:24.652Z,5.07
2022-09-07T16:58:53.429Z,9.82
2022-09-07T17:01:22.012Z,6.97
2022-09-07T17:03:49.727Z,6.32
2022-09-07T17:06:17.495Z,5.35
2022-09-07T17:08:44.980Z,9.40
2022-09-07T17:11:13.702Z,6.25
2022-09-07T17:13:41.515Z,7.03
2022-09-07T17:16:09.972Z,6.57
2022-09-07T17:21:24.699Z,7.53
2022-09-07T17:23:55.690Z,5.55
2022-09-07T17:26:26.713Z,7.00
2022-09-07T17:28:55.501Z,10.48
2022-09-07T17:34:13.168Z,14.20
2022-09-07T17:36:40.360Z,14.20
2022-09-07T17:39:16.744Z,10.65
2022-09-07T17:41:44.595Z,7.15
2022-09-07T17:44:11.696Z,8.55
2022-09-07T17:46:38.968Z,6.82
2022-09-07T17:49:08.038Z,6.78
2022-09-07T17:51:36.289Z,9.00
2022-09-07T17:54:09.533Z,6.85
2022-09-07T17:56:37.880Z,5.53
2022-09-07T18:01:54.059Z,8.32
2022-09-07T18:04:21.661Z,5.97
2022-09-07T18:06:49.067Z,5.63
2022-09-07T18:09:16.435Z,6.30
2022-09-07T18:11:48.227Z,11.30
2022-09-07T18:14:16.542Z,27.38
2022-09-07T18:16:44.871Z,18.90
2022-09-07T18:19:12.528Z,15.57
2022-09-07T18:21:41.973Z,10.40
2022-09-07T18:24:13.571Z,5.85
2022-09-07T18:26:41.229Z,5.18
2022-09-07T18:29:19.239Z,7.13
2022-09-07T18:31:55.557Z,4.97
2022-09-07T18:34:23.112Z,6.00
2022-09-07T18:36:50.234Z,5.25
2022-09-07T18:39:17.396Z,8.73
2022-09-07T18:41:44.449Z,4.18
2022-09-07T18:46:58.679Z,5.22
2022-09-07T18:49:25.782Z,5.20
2022-09-07T18:54:41.304Z,6.25
2022-09-07T18:57:08.859Z,5.68
2022-09-07T18:59:36.129Z,4.88
2022-09-07T19:02:05.810Z,4.85
2022-09-07T19:07:26.060Z,9.75
2022-09-07T19:09:56.095Z,3.92
2022-09-07T19:12:24.283Z,5.60
2022-09-07T19:14:51.706Z,11.23
2022-09-07T19:17:18.856Z,2.92
2022-09-07T19:19:45.964Z,6.43
2022-09-07T19:22:13.062Z,8.15
2022-09-07T19:24:40.157Z,4.05
2022-09-07T19:27:07.295Z,4.88
2022-09-07T19:29:34.425Z,6.25
2022-09-07T19:32:04.494Z,3.42
2022-09-07T19:34:31.742Z,5.32
2022-09-07T19:36:59.170Z,7.72
2022-09-07T19:39:26.278Z,4.72
2022-09-07T19:41:53.581Z,5.63
2022-09-07T19:44:20.755Z,4.13
2022-09-07T19:46:48.231Z,4.75
2022-09-07T19:49:15.352Z,5.28
2022-09-07T19:51:42.773Z,4.75
2022-09-07T19:54:10.674Z,6.65
2022-09-07T19:56:38.629Z,4.03
2022-09-07T19:59:06.042Z,5.32
2022-09-07T20:01:33.924Z,3.92
2022-09-07T20:04:03.312Z,6.95
2022-09-07T20:06:32.744Z,7.78
2022-09-07T20:09:01.323Z,5.38
2022-09-07T20:11:28.981Z,5.65
2022-09-07T20:13:59.824Z,4.43
2022-09-07T20:16:31.163Z,8.77
2022-09-07T20:18:59.250Z,2.47
2022-09-07T20:21:27.047Z,6.25
2022-09-07T20:23:54.209Z,5.28
2022-09-07T20:26:22.422Z,4.55
2022-09-07T20:29:10.963Z,4.47
2022-09-07T20:31:44.172Z,9.63
2022-09-07T20:34:11.670Z,4.97
2022-09-07T20:36:38.890Z,4.90
2022-09-07T20:39:06.348Z,6.03
2022-09-07T20:41:34.450Z,7.05
2022-09-07T20:44:02.799Z,6.50
2022-09-07T20:46:30.567Z,5.43
2022-09-07T20:48:58.119Z,8.05
2022-09-07T20:51:25.667Z,7.20
2022-09-07T20:53:52.802Z,8.95
2022-09-07T20:56:21.398Z,5.05
2022-09-07T20:58:49.311Z,3.58
2022-09-07T21:01:18.184Z,5.85
2022-09-07T21:03:49.193Z,7.82
2022-09-07T21:06:16.703Z,5.75
2022-09-07T21:08:44.626Z,5.15
2022-09-07T21:11:13.244Z,5.00
2022-09-07T21:13:40.360Z,6.45
2022-09-07T21:16:09.027Z,6.82
2022-09-07T21:18:36.559Z,6.80
2022-09-07T21:21:19.322Z,5.05
2022-09-07T21:23:47.462Z,4.45
2022-09-07T21:26:14.650Z,5.30
2022-09-07T21:28:41.772Z,6.13
2022-09-07T21:31:09.610Z,4.38
2022-09-07T21:33:37.717Z,6.45
2022-09-07T21:36:05.465Z,7.07
2022-09-07T21:38:32.662Z,6.28
2022-09-07T21:40:59.836Z,6.82
2022-09-07T21:43:27.015Z,10.15
2022-09-07T21:45:54.131Z,5.75
2022-09-07T21:48:21.233Z,4.53
2022-09-07T21:50:48.380Z,5.55
2022-09-07T21:53:15.432Z,9.63
2022-09-07T21:55:42.807Z,7.15
2022-09-07T21:58:09.915Z,8.18
2022-09-07T22:00:38.824Z,10.07
2022-09-07T22:03:06.329Z,7.00
2022-09-07T22:05:36.495Z,4.72
2022-09-07T22:08:03.888Z,6.05
2022-09-07T22:10:32.730Z,7.43
2022-09-07T22:12:59.806Z,5.20
2022-09-07T22:15:26.878Z,4.78
2022-09-07T22:17:54.194Z,7.35
2022-09-07T22:20:21.500Z,6.63
2022-09-07T22:22:48.660Z,4.55
2022-09-07T22:25:15.838Z,7.45
2022-09-07T22:27:42.898Z,4.95
2022-09-07T22:30:11.433Z,6.10
2022-09-07T22:32:38.489Z,8.63
2022-09-07T22:35:05.802Z,6.55
2022-09-07T22:37:32.896Z,9.20
2022-09-07T22:40:00.027Z,8.48
2022-09-07T22:42:27.213Z,6.53
2022-09-07T22:44:55.160Z,5.80
2022-09-07T22:47:22.258Z,7.40
2022-09-07T22:49:49.349Z,7.43
2022-09-07T22:52:16.417Z,14.63
2022-09-07T22:54:43.593Z,14.25
2022-09-07T22:57:10.764Z,7.47
2022-09-07T22:59:37.848Z,7.93
2022-09-07T23:02:05.423Z,10.87
2022-09-07T23:04:32.611Z,12.88
2022-09-07T23:06:59.735Z,12.75
2022-09-07T23:09:26.906Z,12.03
2022-09-07T23:11:54.006Z,10.27
2022-09-07T23:14:22.292Z,8.20
2022-09-07T23:16:49.742Z,11.50
2022-09-07T23:19:17.771Z,12.68
2022-09-07T23:21:44.892Z,9.98
2022-09-07T23:24:13.244Z,8.37
2022-09-07T23:26:40.405Z,14.00
2022-09-07T23:29:07.505Z,6.23
2022-09-07T23:31:36.878Z,10.80
2022-09-07T23:34:04.193Z,8.38
2022-09-07T23:36:31.339Z,8.60
2022-09-07T23:38:59.223Z,12.63
2022-09-07T23:41:26.572Z,16.77
2022-09-07T23:43:54.167Z,6.95
2022-09-07T23:46:21.544Z,10.45
2022-09-07T23:48:48.736Z,16.92
2022-09-07T23:51:18.871Z,13.10
2022-09-07T23:53:50.075Z,11.38
2022-09-07T23:56:17.251Z,8.35
2022-09-07T23:58:44.363Z,11.70
